sensor_id;sensor_type;location;lat;lon;timestamp;P1;durP1;ratioP1;P2;durP2;ratioP2
17965;SDS011;9108;53.204;10.424;2022-10-18T00:00:03;12.50;;;5.93;;
17965;SDS011;9108;53.204;10.424;2022-10-18T00:02:30;11.73;;;5.78;;
17965;SDS011;9108;53.204;10.424;2022-10-18T00:04:59;13.20;;;5.97;;
17965;SDS011;9108;53.204;10.424;2022-10-18T00:07:26;15.32;;;6.15;;
17965;SDS011;9108;53.204;10.424;2022-10-18T00:09:53;12.55;;;6.20;;
17965;SDS011;9108;53.204;10.424;2022-10-18T00:12:20;14.00;;;5.90;;
17965;SDS011;9108;53.204;10.424;2022-10-18T00:14:47;12.52;;;5.93;;
17965;SDS011;9108;53.204;10.424;2022-10-18T00:17:14;13.18;;;6.25;;
17965;SDS011;9108;53.204;10.424;2022-10-18T00:19:41;15.70;;;6.43;;
17965;SDS011;9108;53.204;10.424;2022-10-18T00:22:10;15.68;;;7.65;;
17965;SDS011;9108;53.204;10.424;2022-10-18T00:24:37;13.63;;;6.63;;
17965;SDS011;9108;53.204;10.424;2022-10-18T00:27:04;15.73;;;7.50;;
17965;SDS011;9108;53.204;10.424;2022-10-18T00:29:31;17.08;;;7.40;;
17965;SDS011;9108;53.204;10.424;2022-10-18T00:31:58;20.08;;;7.88;;
17965;SDS011;9108;53.204;10.424;2022-10-18T00:34:25;14.37;;;7.37;;
17965;SDS011;9108;53.204;10.424;2022-10-18T00:36:52;14.43;;;7.78;;
17965;SDS011;9108;53.204;10.424;2022-10-18T00:39:21;16.17;;;8.18;;
17965;SDS011;9108;53.204;10.424;2022-10-18T00:41:48;21.15;;;8.93;;
17965;SDS011;9108;53.204;10.424;2022-10-18T00:47:06;17.98;;;8.90;;
17965;SDS011;9108;53.204;10.424;2022-10-18T00:49:34;22.02;;;9.23;;
17965;SDS011;9108;53.204;10.424;2022-10-18T00:52:02;19.17;;;9.30;;
17965;SDS011;9108;53.204;10.424;2022-10-18T00:54:34;19.33;;;9.70;;
17965;SDS011;9108;53.204;10.424;2022-10-18T00:57:02;23.17;;;10.20;;
17965;SDS011;9108;53.204;10.424;2022-10-18T00:59:30;18.17;;;9.25;;
17965;SDS011;9108;53.204;10.424;2022-10-18T01:01:57;20.08;;;10.00;;
17965;SDS011;9108;53.204;10.424;2022-10-18T01:04:24;23.45;;;10.70;;
17965;SDS011;9108;53.204;10.424;2022-10-18T01:06:53;25.60;;;10.57;;
17965;SDS011;9108;53.204;10.424;2022-10-18T01:09:22;23.03;;;10.83;;
17965;SDS011;9108;53.204;10.424;2022-10-18T01:11:58;22.48;;;10.25;;
17965;SDS011;9108;53.204;10.424;2022-10-18T01:14:33;20.88;;;9.98;;
17965;SDS011;9108;53.204;10.424;2022-10-18T01:17:03;19.25;;;9.77;;
17965;SDS011;9108;53.204;10.424;2022-10-18T01:19:52;22.60;;;10.52;;
17965;SDS011;9108;53.204;10.424;2022-10-18T01:22:25;23.08;;;10.35;;
17965;SDS011;9108;53.204;10.424;2022-10-18T01:24:58;22.08;;;9.75;;
17965;SDS011;9108;53.204;10.424;2022-10-18T01:27:34;23.45;;;10.23;;
17965;SDS011;9108;53.204;10.424;2022-10-18T01:32:57;20.00;;;10.13;;
17965;SDS011;9108;53.204;10.424;2022-10-18T01:35:26;19.85;;;9.82;;
17965;SDS011;9108;53.204;10.424;2022-10-18T01:37:56;16.98;;;8.90;;
17965;SDS011;9108;53.204;10.424;2022-10-18T01:40:24;20.05;;;9.50;;
17965;SDS011;9108;53.204;10.424;2022-10-18T01:42:51;17.70;;;9.02;;
17965;SDS011;9108;53.204;10.424;2022-10-18T01:45:18;19.40;;;9.23;;
17965;SDS011;9108;53.204;10.424;2022-10-18T01:47:47;23.83;;;9.75;;
17965;SDS011;9108;53.204;10.424;2022-10-18T01:50:21;18.50;;;9.35;;
17965;SDS011;9108;53.204;10.424;2022-10-18T01:52:53;19.70;;;9.30;;
17965;SDS011;9108;53.204;10.424;2022-10-18T01:55:20;23.20;;;10.40;;
17965;SDS011;9108;53.204;10.424;2022-10-18T01:57:52;22.50;;;10.65;;
17965;SDS011;9108;53.204;10.424;2022-10-18T02:00:23;20.38;;;10.38;;
17965;SDS011;9108;53.204;10.424;2022-10-18T02:02:53;23.73;;;11.68;;
17965;SDS011;9108;53.204;10.424;2022-10-18T02:05:27;19.70;;;9.97;;
17965;SDS011;9108;53.204;10.424;2022-10-18T02:07:57;20.35;;;10.55;;
17965;SDS011;9108;53.204;10.424;2022-10-18T02:10:27;23.42;;;10.43;;
17965;SDS011;9108;53.204;10.424;2022-10-18T02:12:55;20.70;;;9.90;;
17965;SDS011;9108;53.204;10.424;2022-10-18T02:15:23;18.33;;;9.18;;
17965;SDS011;9108;53.204;10.424;2022-10-18T02:17:51;18.77;;;10.15;;
17965;SDS011;9108;53.204;10.424;2022-10-18T02:20:19;18.00;;;9.48;;
17965;SDS011;9108;53.204;10.424;2022-10-18T02:22:49;15.60;;;8.48;;
17965;SDS011;9108;53.204;10.424;2022-10-18T02:25:19;20.70;;;9.35;;
17965;SDS011;9108;53.204;10.424;2022-10-18T02:27:47;20.80;;;10.57;;
17965;SDS011;9108;53.204;10.424;2022-10-18T02:30:14;24.43;;;11.67;;
17965;SDS011;9108;53.204;10.424;2022-10-18T02:32:43;22.87;;;11.10;;
17965;SDS011;9108;53.204;10.424;2022-10-18T02:35:12;24.75;;;11.95;;
17965;SDS011;9108;53.204;10.424;2022-10-18T02:37:41;22.95;;;11.38;;
17965;SDS011;9108;53.204;10.424;2022-10-18T02:40:10;26.53;;;13.40;;
17965;SDS011;9108;53.204;10.424;2022-10-18T02:42:38;29.83;;;12.85;;
17965;SDS011;9108;53.204;10.424;2022-10-18T02:45:06;28.40;;;13.20;;
17965;SDS011;9108;53.204;10.424;2022-10-18T02:47:33;26.85;;;13.43;;
17965;SDS011;9108;53.204;10.424;2022-10-18T02:50:00;27.08;;;13.48;;
17965;SDS011;9108;53.204;10.424;2022-10-18T02:52:27;26.73;;;13.07;;
17965;SDS011;9108;53.204;10.424;2022-10-18T02:54:54;26.70;;;13.23;;
17965;SDS011;9108;53.204;10.424;2022-10-18T02:57:22;29.67;;;14.00;;
17965;SDS011;9108;53.204;10.424;2022-10-18T02:59:49;25.00;;;12.65;;
17965;SDS011;9108;53.204;10.424;2022-10-18T03:02:16;27.13;;;12.55;;
17965;SDS011;9108;53.204;10.424;2022-10-18T03:04:43;23.67;;;12.48;;
17965;SDS011;9108;53.204;10.424;2022-10-18T03:07:10;27.30;;;13.50;;
17965;SDS011;9108;53.204;10.424;2022-10-18T03:09:38;27.98;;;13.90;;
17965;SDS011;9108;53.204;10.424;2022-10-18T03:12:05;27.87;;;13.97;;
17965;SDS011;9108;53.204;10.424;2022-10-18T03:14:33;27.15;;;14.00;;
17965;SDS011;9108;53.204;10.424;2022-10-18T03:17:00;27.38;;;13.20;;
17965;SDS011;9108;53.204;10.424;2022-10-18T03:19:27;29.42;;;13.70;;
17965;SDS011;9108;53.204;10.424;2022-10-18T03:21:54;35.13;;;16.63;;
17965;SDS011;9108;53.204;10.424;2022-10-18T03:24:21;29.90;;;15.05;;
17965;SDS011;9108;53.204;10.424;2022-10-18T03:26:48;30.30;;;14.73;;
17965;SDS011;9108;53.204;10.424;2022-10-18T03:29:15;31.75;;;15.20;;
17965;SDS011;9108;53.204;10.424;2022-10-18T03:31:44;31.98;;;14.32;;
17965;SDS011;9108;53.204;10.424;2022-10-18T03:34:11;30.02;;;14.88;;
17965;SDS011;9108;53.204;10.424;2022-10-18T03:36:39;34.45;;;15.93;;
17965;SDS011;9108;53.204;10.424;2022-10-18T03:39:06;35.70;;;16.20;;
17965;SDS011;9108;53.204;10.424;2022-10-18T03:41:33;39.55;;;17.67;;
17965;SDS011;9108;53.204;10.424;2022-10-18T03:44:01;39.53;;;18.05;;
17965;SDS011;9108;53.204;10.424;2022-10-18T03:46:28;42.87;;;18.73;;
17965;SDS011;9108;53.204;10.424;2022-10-18T03:48:56;42.75;;;18.45;;
17965;SDS011;9108;53.204;10.424;2022-10-18T03:51:23;44.67;;;19.05;;
17965;SDS011;9108;53.204;10.424;2022-10-18T03:53:50;45.78;;;19.35;;
17965;SDS011;9108;53.204;10.424;2022-10-18T03:56:17;41.80;;;17.90;;
17965;SDS011;9108;53.204;10.424;2022-10-18T03:58:44;45.10;;;18.80;;
17965;SDS011;9108;53.204;10.424;2022-10-18T04:01:11;35.70;;;16.53;;
17965;SDS011;9108;53.204;10.424;2022-10-18T04:03:38;33.10;;;16.05;;
17965;SDS011;9108;53.204;10.424;2022-10-18T04:06:07;36.83;;;15.60;;
17965;SDS011;9108;53.204;10.424;2022-10-18T04:08:34;37.75;;;16.77;;
17965;SDS011;9108;53.204;10.424;2022-10-18T04:11:03;34.10;;;15.85;;
17965;SDS011;9108;53.204;10.424;2022-10-18T04:13:32;30.63;;;15.63;;
17965;SDS011;9108;53.204;10.424;2022-10-18T04:15:59;40.53;;;17.75;;
17965;SDS011;9108;53.204;10.424;2022-10-18T04:18:26;40.60;;;17.80;;
17965;SDS011;9108;53.204;10.424;2022-10-18T04:20:53;41.13;;;17.65;;
17965;SDS011;9108;53.204;10.424;2022-10-18T04:23:21;39.30;;;17.35;;
17965;SDS011;9108;53.204;10.424;2022-10-18T04:25:48;38.10;;;16.83;;
17965;SDS011;9108;53.204;10.424;2022-10-18T04:28:15;42.55;;;17.15;;
17965;SDS011;9108;53.204;10.424;2022-10-18T04:30:42;42.75;;;17.27;;
17965;SDS011;9108;53.204;10.424;2022-10-18T04:33:10;37.85;;;16.23;;
17965;SDS011;9108;53.204;10.424;2022-10-18T04:35:37;30.65;;;15.30;;
17965;SDS011;9108;53.204;10.424;2022-10-18T04:38:04;41.03;;;16.95;;
17965;SDS011;9108;53.204;10.424;2022-10-18T04:40:32;35.42;;;16.40;;
17965;SDS011;9108;53.204;10.424;2022-10-18T04:42:59;31.20;;;15.25;;
17965;SDS011;9108;53.204;10.424;2022-10-18T04:45:26;30.65;;;15.20;;
17965;SDS011;9108;53.204;10.424;2022-10-18T04:47:53;33.45;;;15.18;;
17965;SDS011;9108;53.204;10.424;2022-10-18T04:50:20;37.58;;;16.02;;
17965;SDS011;9108;53.204;10.424;2022-10-18T04:52:47;36.95;;;16.67;;
17965;SDS011;9108;53.204;10.424;2022-10-18T04:55:14;35.75;;;16.25;;
17965;SDS011;9108;53.204;10.424;2022-10-18T04:57:43;34.63;;;15.50;;
17965;SDS011;9108;53.204;10.424;2022-10-18T05:00:10;33.42;;;15.50;;
17965;SDS011;9108;53.204;10.424;2022-10-18T05:02:38;33.38;;;15.48;;
17965;SDS011;9108;53.204;10.424;2022-10-18T05:05:05;28.67;;;13.77;;
17965;SDS011;9108;53.204;10.424;2022-10-18T05:07:32;36.47;;;16.43;;
17965;SDS011;9108;53.204;10.424;2022-10-18T05:09:59;30.17;;;14.63;;
17965;SDS011;9108;53.204;10.424;2022-10-18T05:12:26;33.67;;;15.02;;
17965;SDS011;9108;53.204;10.424;2022-10-18T05:14:55;32.43;;;15.97;;
17965;SDS011;9108;53.204;10.424;2022-10-18T05:17:22;32.60;;;15.43;;
17965;SDS011;9108;53.204;10.424;2022-10-18T05:19:49;32.08;;;14.35;;
17965;SDS011;9108;53.204;10.424;2022-10-18T05:22:16;31.60;;;14.98;;
17965;SDS011;9108;53.204;10.424;2022-10-18T05:24:43;33.80;;;15.10;;
17965;SDS011;9108;53.204;10.424;2022-10-18T05:27:10;35.88;;;16.63;;
17965;SDS011;9108;53.204;10.424;2022-10-18T05:29:37;35.80;;;16.42;;
17965;SDS011;9108;53.204;10.424;2022-10-18T05:32:05;34.35;;;16.17;;
17965;SDS011;9108;53.204;10.424;2022-10-18T05:34:32;29.80;;;14.75;;
17965;SDS011;9108;53.204;10.424;2022-10-18T05:37:00;27.95;;;13.95;;
17965;SDS011;9108;53.204;10.424;2022-10-18T05:39:27;26.98;;;13.95;;
17965;SDS011;9108;53.204;10.424;2022-10-18T05:41:54;28.10;;;14.45;;
17965;SDS011;9108;53.204;10.424;2022-10-18T05:44:22;27.92;;;13.80;;
17965;SDS011;9108;53.204;10.424;2022-10-18T05:46:49;27.05;;;13.73;;
17965;SDS011;9108;53.204;10.424;2022-10-18T05:49:17;23.98;;;12.55;;
17965;SDS011;9108;53.204;10.424;2022-10-18T05:51:45;27.80;;;13.40;;
17965;SDS011;9108;53.204;10.424;2022-10-18T05:54:12;33.00;;;15.48;;
17965;SDS011;9108;53.204;10.424;2022-10-18T05:56:39;34.78;;;15.52;;
17965;SDS011;9108;53.204;10.424;2022-10-18T05:59:06;31.92;;;13.75;;
17965;SDS011;9108;53.204;10.424;2022-10-18T06:01:36;32.78;;;15.75;;
17965;SDS011;9108;53.204;10.424;2022-10-18T06:04:03;30.52;;;13.63;;
17965;SDS011;9108;53.204;10.424;2022-10-18T06:06:31;27.73;;;13.52;;
17965;SDS011;9108;53.204;10.424;2022-10-18T06:08:58;24.13;;;12.93;;
17965;SDS011;9108;53.204;10.424;2022-10-18T06:11:27;24.47;;;12.03;;
17965;SDS011;9108;53.204;10.424;2022-10-18T06:13:54;21.27;;;10.98;;
17965;SDS011;9108;53.204;10.424;2022-10-18T06:16:22;25.00;;;12.47;;
17965;SDS011;9108;53.204;10.424;2022-10-18T06:18:50;26.70;;;11.93;;
17965;SDS011;9108;53.204;10.424;2022-10-18T06:21:18;23.25;;;11.90;;
17965;SDS011;9108;53.204;10.424;2022-10-18T06:23:48;20.70;;;10.70;;
17965;SDS011;9108;53.204;10.424;2022-10-18T06:26:15;25.35;;;12.70;;
17965;SDS011;9108;53.204;10.424;2022-10-18T06:28:42;24.45;;;12.65;;
17965;SDS011;9108;53.204;10.424;2022-10-18T06:31:10;27.13;;;13.40;;
17965;SDS011;9108;53.204;10.424;2022-10-18T06:33:37;28.90;;;13.15;;
17965;SDS011;9108;53.204;10.424;2022-10-18T06:36:05;27.70;;;12.63;;
17965;SDS011;9108;53.204;10.424;2022-10-18T06:38:33;27.20;;;12.35;;
17965;SDS011;9108;53.204;10.424;2022-10-18T06:41:01;25.73;;;11.02;;
17965;SDS011;9108;53.204;10.424;2022-10-18T06:43:29;21.25;;;10.50;;
17965;SDS011;9108;53.204;10.424;2022-10-18T06:45:56;19.05;;;9.60;;
17965;SDS011;9108;53.204;10.424;2022-10-18T06:48:23;20.92;;;10.35;;
17965;SDS011;9108;53.204;10.424;2022-10-18T06:50:51;26.08;;;13.13;;
17965;SDS011;9108;53.204;10.424;2022-10-18T06:53:19;25.10;;;12.23;;
17965;SDS011;9108;53.204;10.424;2022-10-18T06:55:46;26.60;;;12.48;;
17965;SDS011;9108;53.204;10.424;2022-10-18T06:58:14;25.93;;;12.50;;
17965;SDS011;9108;53.204;10.424;2022-10-18T07:00:41;24.00;;;12.27;;
17965;SDS011;9108;53.204;10.424;2022-10-18T07:03:09;33.00;;;15.00;;
17965;SDS011;9108;53.204;10.424;2022-10-18T07:05:36;38.08;;;15.88;;
17965;SDS011;9108;53.204;10.424;2022-10-18T07:08:03;38.43;;;16.43;;
17965;SDS011;9108;53.204;10.424;2022-10-18T07:10:30;36.33;;;15.77;;
17965;SDS011;9108;53.204;10.424;2022-10-18T07:12:57;33.80;;;15.73;;
17965;SDS011;9108;53.204;10.424;2022-10-18T07:15:26;32.87;;;14.73;;
17965;SDS011;9108;53.204;10.424;2022-10-18T07:17:53;27.90;;;13.03;;
17965;SDS011;9108;53.204;10.424;2022-10-18T07:20:21;34.80;;;15.20;;
17965;SDS011;9108;53.204;10.424;2022-10-18T07:22:48;31.23;;;14.40;;
17965;SDS011;9108;53.204;10.424;2022-10-18T07:25:15;37.45;;;16.13;;
17965;SDS011;9108;53.204;10.424;2022-10-18T07:27:42;43.53;;;17.20;;
17965;SDS011;9108;53.204;10.424;2022-10-18T07:30:09;46.25;;;18.13;;
17965;SDS011;9108;53.204;10.424;2022-10-18T07:32:38;49.83;;;18.85;;
17965;SDS011;9108;53.204;10.424;2022-10-18T07:35:05;41.20;;;17.20;;
17965;SDS011;9108;53.204;10.424;2022-10-18T07:37:32;39.75;;;17.08;;
17965;SDS011;9108;53.204;10.424;2022-10-18T07:39:59;46.53;;;18.90;;
17965;SDS011;9108;53.204;10.424;2022-10-18T07:42:26;41.53;;;17.38;;
17965;SDS011;9108;53.204;10.424;2022-10-18T07:44:54;39.80;;;17.38;;
17965;SDS011;9108;53.204;10.424;2022-10-18T07:47:21;48.13;;;19.08;;
17965;SDS011;9108;53.204;10.424;2022-10-18T07:49:49;47.92;;;19.20;;
17965;SDS011;9108;53.204;10.424;2022-10-18T07:52:16;46.50;;;18.27;;
17965;SDS011;9108;53.204;10.424;2022-10-18T07:54:43;43.97;;;17.40;;
17965;SDS011;9108;53.204;10.424;2022-10-18T07:57:10;43.00;;;16.83;;
17965;SDS011;9108;53.204;10.424;2022-10-18T07:59:37;39.83;;;16.40;;
17965;SDS011;9108;53.204;10.424;2022-10-18T08:02:05;54.47;;;19.05;;
17965;SDS011;9108;53.204;10.424;2022-10-18T08:04:32;49.70;;;17.02;;
17965;SDS011;9108;53.204;10.424;2022-10-18T08:07:00;47.38;;;16.88;;
17965;SDS011;9108;53.204;10.424;2022-10-18T08:09:27;40.80;;;15.20;;
17965;SDS011;9108;53.204;10.424;2022-10-18T08:11:54;41.03;;;15.55;;
17965;SDS011;9108;53.204;10.424;2022-10-18T08:14:21;37.08;;;14.65;;
17965;SDS011;9108;53.204;10.424;2022-10-18T08:16:48;39.07;;;14.57;;
17965;SDS011;9108;53.204;10.424;2022-10-18T08:19:15;38.17;;;14.55;;
17965;SDS011;9108;53.204;10.424;2022-10-18T08:21:42;43.55;;;15.05;;
17965;SDS011;9108;53.204;10.424;2022-10-18T08:24:11;39.78;;;14.80;;
17965;SDS011;9108;53.204;10.424;2022-10-18T08:26:38;39.45;;;14.90;;
17965;SDS011;9108;53.204;10.424;2022-10-18T08:29:05;38.78;;;15.13;;
17965;SDS011;9108;53.204;10.424;2022-10-18T08:31:32;40.65;;;15.27;;
17965;SDS011;9108;53.204;10.424;2022-10-18T08:33:59;34.70;;;15.00;;
17965;SDS011;9108;53.204;10.424;2022-10-18T08:36:26;38.10;;;14.40;;
17965;SDS011;9108;53.204;10.424;2022-10-18T08:38:53;39.10;;;14.15;;
17965;SDS011;9108;53.204;10.424;2022-10-18T08:44:12;40.03;;;14.05;;
17965;SDS011;9108;53.204;10.424;2022-10-18T08:46:40;36.53;;;14.02;;
17965;SDS011;9108;53.204;10.424;2022-10-18T08:49:09;37.80;;;13.68;;
17965;SDS011;9108;53.204;10.424;2022-10-18T08:51:38;37.92;;;13.57;;
17965;SDS011;9108;53.204;10.424;2022-10-18T08:54:09;34.40;;;13.43;;
17965;SDS011;9108;53.204;10.424;2022-10-18T08:56:37;31.67;;;12.25;;
17965;SDS011;9108;53.204;10.424;2022-10-18T08:59:05;32.05;;;12.15;;
17965;SDS011;9108;53.204;10.424;2022-10-18T09:01:37;31.92;;;12.13;;
17965;SDS011;9108;53.204;10.424;2022-10-18T09:06:51;30.50;;;11.38;;
17965;SDS011;9108;53.204;10.424;2022-10-18T09:09:24;31.40;;;11.77;;
17965;SDS011;9108;53.204;10.424;2022-10-18T09:11:57;32.55;;;11.43;;
17965;SDS011;9108;53.204;10.424;2022-10-18T09:14:35;34.50;;;11.55;;
17965;SDS011;9108;53.204;10.424;2022-10-18T09:17:10;30.42;;;10.50;;
17965;SDS011;9108;53.204;10.424;2022-10-18T09:19:45;33.40;;;11.57;;
17965;SDS011;9108;53.204;10.424;2022-10-18T09:22:19;30.95;;;11.05;;
17965;SDS011;9108;53.204;10.424;2022-10-18T09:24:48;28.67;;;10.38;;
17965;SDS011;9108;53.204;10.424;2022-10-18T09:27:18;26.58;;;9.88;;
17965;SDS011;9108;53.204;10.424;2022-10-18T09:29:49;29.20;;;10.30;;
17965;SDS011;9108;53.204;10.424;2022-10-18T09:32:24;27.77;;;9.88;;
17965;SDS011;9108;53.204;10.424;2022-10-18T09:34:52;28.67;;;9.65;;
17965;SDS011;9108;53.204;10.424;2022-10-18T09:37:21;24.45;;;8.80;;
17965;SDS011;9108;53.204;10.424;2022-10-18T09:39:49;27.92;;;9.85;;
17965;SDS011;9108;53.204;10.424;2022-10-18T09:42:18;25.60;;;9.10;;
17965;SDS011;9108;53.204;10.424;2022-10-18T09:44:52;29.77;;;9.45;;
17965;SDS011;9108;53.204;10.424;2022-10-18T09:47:20;24.13;;;8.20;;
17965;SDS011;9108;53.204;10.424;2022-10-18T09:49:51;23.65;;;8.38;;
17965;SDS011;9108;53.204;10.424;2022-10-18T09:52:22;24.80;;;8.47;;
17965;SDS011;9108;53.204;10.424;2022-10-18T09:54:51;27.75;;;8.68;;
17965;SDS011;9108;53.204;10.424;2022-10-18T09:57:21;26.60;;;8.93;;
17965;SDS011;9108;53.204;10.424;2022-10-18T09:59:50;27.17;;;8.30;;
17965;SDS011;9108;53.204;10.424;2022-10-18T10:02:18;24.00;;;8.35;;
17965;SDS011;9108;53.204;10.424;2022-10-18T10:04:46;24.80;;;8.23;;
17965;SDS011;9108;53.204;10.424;2022-10-18T10:07:16;21.45;;;7.57;;
17965;SDS011;9108;53.204;10.424;2022-10-18T10:09:44;21.92;;;7.47;;
17965;SDS011;9108;53.204;10.424;2022-10-18T10:12:23;22.33;;;7.13;;
17965;SDS011;9108;53.204;10.424;2022-10-18T10:14:50;16.67;;;6.80;;
17965;SDS011;9108;53.204;10.424;2022-10-18T10:17:20;18.30;;;6.40;;
17965;SDS011;9108;53.204;10.424;2022-10-18T10:19:53;18.67;;;6.30;;
17965;SDS011;9108;53.204;10.424;2022-10-18T10:22:26;17.17;;;6.38;;
17965;SDS011;9108;53.204;10.424;2022-10-18T10:24:54;16.23;;;6.30;;
17965;SDS011;9108;53.204;10.424;2022-10-18T10:27:23;14.85;;;6.25;;
17965;SDS011;9108;53.204;10.424;2022-10-18T10:29:56;18.77;;;6.03;;
17965;SDS011;9108;53.204;10.424;2022-10-18T10:32:24;17.50;;;6.30;;
17965;SDS011;9108;53.204;10.424;2022-10-18T10:34:52;13.73;;;5.30;;
17965;SDS011;9108;53.204;10.424;2022-10-18T10:37:23;13.07;;;5.35;;
17965;SDS011;9108;53.204;10.424;2022-10-18T10:40:04;14.50;;;5.30;;
17965;SDS011;9108;53.204;10.424;2022-10-18T10:42:32;13.32;;;4.35;;
17965;SDS011;9108;53.204;10.424;2022-10-18T10:44:59;12.80;;;3.90;;
17965;SDS011;9108;53.204;10.424;2022-10-18T10:47:27;19.52;;;4.65;;
17965;SDS011;9108;53.204;10.424;2022-10-18T10:49:56;8.98;;;3.50;;
17965;SDS011;9108;53.204;10.424;2022-10-18T10:52:24;12.15;;;3.88;;
17965;SDS011;9108;53.204;10.424;2022-10-18T10:54:53;10.85;;;3.47;;
17965;SDS011;9108;53.204;10.424;2022-10-18T10:57:23;10.82;;;3.50;;
17965;SDS011;9108;53.204;10.424;2022-10-18T10:59:51;10.43;;;3.40;;
17965;SDS011;9108;53.204;10.424;2022-10-18T11:02:19;8.88;;;3.00;;
17965;SDS011;9108;53.204;10.424;2022-10-18T11:04:47;9.77;;;2.80;;
17965;SDS011;9108;53.204;10.424;2022-10-18T11:07:15;10.38;;;2.80;;
17965;SDS011;9108;53.204;10.424;2022-10-18T11:09:50;8.57;;;2.53;;
17965;SDS011;9108;53.204;10.424;2022-10-18T11:12:21;7.88;;;2.50;;
17965;SDS011;9108;53.204;10.424;2022-10-18T11:14:51;9.77;;;2.50;;
17965;SDS011;9108;53.204;10.424;2022-10-18T11:17:22;11.52;;;2.40;;
17965;SDS011;9108;53.204;10.424;2022-10-18T11:19:58;9.48;;;2.20;;
17965;SDS011;9108;53.204;10.424;2022-10-18T11:22:28;8.00;;;2.22;;
17965;SDS011;9108;53.204;10.424;2022-10-18T11:24:55;10.15;;;2.20;;
17965;SDS011;9108;53.204;10.424;2022-10-18T11:27:23;7.40;;;1.92;;
17965;SDS011;9108;53.204;10.424;2022-10-18T11:30:05;5.93;;;1.98;;
17965;SDS011;9108;53.204;10.424;2022-10-18T11:32:39;7.18;;;1.70;;
17965;SDS011;9108;53.204;10.424;2022-10-18T11:35:11;6.43;;;1.77;;
17965;SDS011;9108;53.204;10.424;2022-10-18T11:37:51;6.13;;;1.40;;
17965;SDS011;9108;53.204;10.424;2022-10-18T11:40:29;4.03;;;1.30;;
17965;SDS011;9108;53.204;10.424;2022-10-18T11:43:00;10.00;;;1.70;;
17965;SDS011;9108;53.204;10.424;2022-10-18T11:45:34;7.40;;;1.77;;
17965;SDS011;9108;53.204;10.424;2022-10-18T11:48:04;5.80;;;1.50;;
17965;SDS011;9108;53.204;10.424;2022-10-18T11:50:33;7.03;;;1.58;;
17965;SDS011;9108;53.204;10.424;2022-10-18T11:53:07;7.22;;;1.70;;
17965;SDS011;9108;53.204;10.424;2022-10-18T11:55:38;7.88;;;1.50;;
17965;SDS011;9108;53.204;10.424;2022-10-18T11:58:14;6.23;;;1.77;;
17965;SDS011;9108;53.204;10.424;2022-10-18T12:00:46;8.63;;;2.03;;
17965;SDS011;9108;53.204;10.424;2022-10-18T12:03:19;6.45;;;2.10;;
17965;SDS011;9108;53.204;10.424;2022-10-18T12:05:48;9.07;;;2.30;;
17965;SDS011;9108;53.204;10.424;2022-10-18T12:08:17;9.65;;;2.38;;
17965;SDS011;9108;53.204;10.424;2022-10-18T12:10:46;9.40;;;2.42;;
17965;SDS011;9108;53.204;10.424;2022-10-18T12:13:16;8.23;;;2.30;;
17965;SDS011;9108;53.204;10.424;2022-10-18T12:15:45;9.05;;;2.38;;
17965;SDS011;9108;53.204;10.424;2022-10-18T12:18:14;7.07;;;2.47;;
17965;SDS011;9108;53.204;10.424;2022-10-18T12:20:42;8.00;;;2.40;;
17965;SDS011;9108;53.204;10.424;2022-10-18T12:23:11;8.60;;;2.33;;
17965;SDS011;9108;53.204;10.424;2022-10-18T12:25:45;8.30;;;2.55;;
17965;SDS011;9108;53.204;10.424;2022-10-18T12:28:16;8.57;;;2.58;;
17965;SDS011;9108;53.204;10.424;2022-10-18T12:30:49;10.48;;;2.75;;
17965;SDS011;9108;53.204;10.424;2022-10-18T12:33:20;11.30;;;2.80;;
17965;SDS011;9108;53.204;10.424;2022-10-18T12:35:52;10.00;;;2.88;;
17965;SDS011;9108;53.204;10.424;2022-10-18T12:38:22;11.13;;;2.70;;
17965;SDS011;9108;53.204;10.424;2022-10-18T12:40:51;6.17;;;2.30;;
17965;SDS011;9108;53.204;10.424;2022-10-18T12:43:20;6.32;;;2.40;;
17965;SDS011;9108;53.204;10.424;2022-10-18T12:45:50;6.55;;;2.13;;
17965;SDS011;9108;53.204;10.424;2022-10-18T12:48:25;7.30;;;2.10;;
17965;SDS011;9108;53.204;10.424;2022-10-18T12:50:56;7.38;;;2.00;;
17965;SDS011;9108;53.204;10.424;2022-10-18T12:53:24;7.10;;;1.77;;
17965;SDS011;9108;53.204;10.424;2022-10-18T12:55:51;7.85;;;2.00;;
17965;SDS011;9108;53.204;10.424;2022-10-18T12:58:29;6.25;;;1.70;;
17965;SDS011;9108;53.204;10.424;2022-10-18T13:00:58;6.00;;;1.70;;
17965;SDS011;9108;53.204;10.424;2022-10-18T13:06:49;8.60;;;1.60;;
17965;SDS011;9108;53.204;10.424;2022-10-18T13:09:18;6.13;;;1.50;;
17965;SDS011;9108;53.204;10.424;2022-10-18T13:11:46;7.90;;;1.90;;
17965;SDS011;9108;53.204;10.424;2022-10-18T13:17:13;6.45;;;1.70;;
17965;SDS011;9108;53.204;10.424;2022-10-18T13:19:48;5.95;;;1.40;;
17965;SDS011;9108;53.204;10.424;2022-10-18T13:22:21;5.80;;;1.60;;
17965;SDS011;9108;53.204;10.424;2022-10-18T13:24:56;7.45;;;1.70;;
17965;SDS011;9108;53.204;10.424;2022-10-18T13:27:30;7.78;;;1.60;;
17965;SDS011;9108;53.204;10.424;2022-10-18T13:30:10;6.15;;;1.40;;
17965;SDS011;9108;53.204;10.424;2022-10-18T13:32:43;9.82;;;1.80;;
17965;SDS011;9108;53.204;10.424;2022-10-18T13:37:56;8.32;;;1.65;;
17965;SDS011;9108;53.204;10.424;2022-10-18T13:40:25;7.55;;;1.60;;
17965;SDS011;9108;53.204;10.424;2022-10-18T13:42:52;8.33;;;1.63;;
17965;SDS011;9108;53.204;10.424;2022-10-18T13:45:41;6.32;;;1.40;;
17965;SDS011;9108;53.204;10.424;2022-10-18T13:51:10;6.77;;;1.00;;
17965;SDS011;9108;53.204;10.424;2022-10-18T13:53:41;3.63;;;1.10;;
17965;SDS011;9108;53.204;10.424;2022-10-18T13:59:04;5.38;;;1.17;;
17965;SDS011;9108;53.204;10.424;2022-10-18T14:01:37;7.93;;;1.40;;
17965;SDS011;9108;53.204;10.424;2022-10-18T14:04:20;7.18;;;1.40;;
17965;SDS011;9108;53.204;10.424;2022-10-18T14:06:52;6.80;;;1.63;;
17965;SDS011;9108;53.204;10.424;2022-10-18T14:09:23;8.75;;;1.23;;
17965;SDS011;9108;53.204;10.424;2022-10-18T14:11:52;6.80;;;1.05;;
17965;SDS011;9108;53.204;10.424;2022-10-18T14:14:23;8.38;;;1.63;;
17965;SDS011;9108;53.204;10.424;2022-10-18T14:16:55;6.78;;;1.20;;
17965;SDS011;9108;53.204;10.424;2022-10-18T14:19:26;9.05;;;1.60;;
17965;SDS011;9108;53.204;10.424;2022-10-18T14:21:56;6.60;;;1.33;;
17965;SDS011;9108;53.204;10.424;2022-10-18T14:24:25;6.55;;;1.55;;
17965;SDS011;9108;53.204;10.424;2022-10-18T14:27:08;6.63;;;1.40;;
17965;SDS011;9108;53.204;10.424;2022-10-18T14:29:38;11.18;;;1.55;;
17965;SDS011;9108;53.204;10.424;2022-10-18T14:32:07;5.93;;;1.13;;
17965;SDS011;9108;53.204;10.424;2022-10-18T14:34:34;5.28;;;1.38;;
17965;SDS011;9108;53.204;10.424;2022-10-18T14:37:01;9.38;;;1.52;;
17965;SDS011;9108;53.204;10.424;2022-10-18T14:39:29;11.33;;;1.77;;
17965;SDS011;9108;53.204;10.424;2022-10-18T14:41:57;7.40;;;1.35;;
17965;SDS011;9108;53.204;10.424;2022-10-18T14:44:24;8.00;;;1.63;;
17965;SDS011;9108;53.204;10.424;2022-10-18T14:46:58;9.02;;;1.60;;
17965;SDS011;9108;53.204;10.424;2022-10-18T14:49:25;9.82;;;1.90;;
17965;SDS011;9108;53.204;10.424;2022-10-18T14:51:53;8.00;;;1.42;;
17965;SDS011;9108;53.204;10.424;2022-10-18T14:54:22;10.15;;;1.38;;
17965;SDS011;9108;53.204;10.424;2022-10-18T14:56:50;6.80;;;1.30;;
17965;SDS011;9108;53.204;10.424;2022-10-18T14:59:19;6.55;;;1.55;;
17965;SDS011;9108;53.204;10.424;2022-10-18T15:01:50;8.27;;;1.50;;
17965;SDS011;9108;53.204;10.424;2022-10-18T15:04:19;8.43;;;1.38;;
17965;SDS011;9108;53.204;10.424;2022-10-18T15:06:47;11.40;;;1.95;;